createdAt,value
2018-07-25T00:00:10.016Z,97906.84
2018-07-25T00:02:42.166Z,97912.70
2018-07-25T00:05:14.027Z,97915.88
2018-07-25T00:07:45.924Z,97921.22
2018-07-25T00:10:18.128Z,97920.78
2018-07-25T00:12:50.225Z,97917.91
2018-07-25T00:15:22.831Z,97922.11
2018-07-25T00:17:54.546Z,97921.80
2018-07-25T00:20:26.616Z,97926.12
2018-07-25T00:22:58.700Z,97931.45
2018-07-25T00:25:30.713Z,97938.13
2018-07-25T00:28:02.531Z,97935.14
2018-07-25T00:30:34.434Z,97934.55
2018-07-25T00:33:06.300Z,97946.59
2018-07-25T00:35:38.375Z,97949.27
2018-07-25T00:38:10.440Z,97944.75
2018-07-25T00:40:42.470Z,97944.59
2018-07-25T00:43:14.562Z,97935.56
2018-07-25T00:45:46.421Z,97932.74
2018-07-25T00:48:18.202Z,97929.41
2018-07-25T00:50:50.116Z,97934.91
2018-07-25T00:53:22.017Z,97936.63
2018-07-25T00:55:53.594Z,97944.63
2018-07-25T00:58:25.489Z,97941.77
2018-07-25T01:00:57.596Z,97949.97
2018-07-25T01:03:29.246Z,97947.27
2018-07-25T01:06:01.074Z,97954.45
2018-07-25T01:08:33.202Z,97960.97
2018-07-25T01:11:05.454Z,97973.30
2018-07-25T01:13:37.108Z,97987.66
2018-07-25T01:16:10.395Z,97993.31
2018-07-25T01:18:42.218Z,97995.98
2018-07-25T01:21:14.405Z,98004.31
2018-07-25T01:23:46.336Z,98013.34
2018-07-25T01:26:18.380Z,98031.90
2018-07-25T01:28:50.324Z,98040.34
2018-07-25T01:31:22.378Z,98051.28
2018-07-25T01:33:54.455Z,98053.03
2018-07-25T01:36:26.287Z,98054.36
2018-07-25T01:38:58.131Z,98060.21
2018-07-25T01:41:30.171Z,98063.20
2018-07-25T01:44:01.841Z,98067.71
2018-07-25T01:46:33.717Z,98074.89
2018-07-25T01:49:05.642Z,98078.07
2018-07-25T01:51:37.335Z,98074.58
2018-07-25T01:54:09.072Z,98075.08
2018-07-25T01:56:40.911Z,98083.09
2018-07-25T01:59:12.763Z,98077.47
2018-07-25T02:01:44.689Z,98076.64
2018-07-25T02:04:16.482Z,98074.66
2018-07-25T02:06:48.762Z,98085.66
2018-07-25T02:09:20.596Z,98087.19
2018-07-25T02:11:52.495Z,98094.05
2018-07-25T02:14:24.539Z,98092.97
2018-07-25T02:16:56.975Z,98096.11
2018-07-25T02:19:28.448Z,98096.39
2018-07-25T02:22:00.308Z,98104.41
2018-07-25T02:24:32.190Z,98103.06
2018-07-25T02:27:08.379Z,98104.11
2018-07-25T02:29:40.410Z,98098.78
2018-07-25T02:32:12.251Z,98096.48
2018-07-25T02:34:44.173Z,98099.16
2018-07-25T02:37:16.210Z,98111.16
2018-07-25T02:39:48.281Z,98112.50
2018-07-25T02:42:20.040Z,98120.19
2018-07-25T02:44:51.816Z,98120.69
2018-07-25T02:47:23.689Z,98125.92
2018-07-25T02:49:55.540Z,98130.22
2018-07-25T02:52:27.272Z,98138.23
2018-07-25T02:54:58.775Z,98143.56
2018-07-25T02:57:30.720Z,98148.90
2018-07-25T03:00:02.793Z,98147.28
2018-07-25T03:02:34.370Z,98149.95
2018-07-25T03:05:06.475Z,98145.48
2018-07-25T03:07:38.306Z,98151.97
2018-07-25T03:10:09.969Z,98151.28
2018-07-25T03:12:41.834Z,98154.51
2018-07-25T03:15:13.912Z,98159.93
2018-07-25T03:17:47.628Z,98162.19
2018-07-25T03:20:19.463Z,98163.80
2018-07-25T03:22:51.269Z,98164.30
2018-07-25T03:25:22.943Z,98174.66
2018-07-25T03:27:54.956Z,98175.56
2018-07-25T03:30:26.688Z,98178.23
2018-07-25T03:32:58.551Z,98179.75
2018-07-25T03:35:30.312Z,98187.56
2018-07-25T03:38:02.130Z,98180.39
2018-07-25T03:40:33.933Z,98180.07
2018-07-25T03:43:05.784Z,98181.95
2018-07-25T03:45:37.790Z,98178.28
2018-07-25T03:48:09.782Z,98175.75
2018-07-25T03:50:41.614Z,98173.34
2018-07-25T03:53:13.630Z,98167.61
2018-07-25T03:55:45.987Z,98172.70
2018-07-25T03:58:17.981Z,98176.62
2018-07-25T04:00:49.892Z,98174.17
2018-07-25T04:03:21.939Z,98177.77
2018-07-25T04:05:53.747Z,98182.13
2018-07-25T04:08:25.711Z,98174.13
2018-07-25T04:10:57.663Z,98180.06
2018-07-25T04:13:29.635Z,98183.14
2018-07-25T04:16:01.675Z,98182.73
2018-07-25T04:18:33.949Z,98188.02
2018-07-25T04:21:05.814Z,98177.04
2018-07-25T04:23:37.547Z,98178.72
2018-07-25T04:26:09.528Z,98176.06
2018-07-25T04:28:41.790Z,98173.71
2018-07-25T04:31:14.074Z,98180.52
2018-07-25T04:33:47.138Z,98180.52
2018-07-25T04:36:19.674Z,98180.12
2018-07-25T04:38:52.161Z,98182.68
2018-07-25T04:41:24.064Z,98185.85
2018-07-25T04:43:56.389Z,98185.96
2018-07-25T04:46:28.573Z,98186.45
2018-07-25T04:49:00.811Z,98184.74
2018-07-25T04:51:32.768Z,98179.84
2018-07-25T04:54:05.202Z,98183.66
2018-07-25T04:56:37.410Z,98186.13
2018-07-25T04:59:09.946Z,98177.44
2018-07-25T05:01:42.068Z,98178.91
2018-07-25T05:04:14.128Z,98171.78
2018-07-25T05:06:46.418Z,98168.04
2018-07-25T05:09:18.719Z,98164.47
2018-07-25T05:11:51.227Z,98160.47
2018-07-25T05:14:23.675Z,98147.70
2018-07-25T05:16:56.137Z,98148.79
2018-07-25T05:19:29.393Z,98150.58
2018-07-25T05:22:01.397Z,98147.77
2018-07-25T05:24:33.402Z,98148.42
2018-07-25T05:27:05.240Z,98141.37
2018-07-25T05:29:37.225Z,98135.35
2018-07-25T05:32:09.464Z,98137.65
2018-07-25T05:34:41.945Z,98135.67
2018-07-25T05:37:14.507Z,98133.33
2018-07-25T05:39:46.949Z,98125.83
2018-07-25T05:42:19.373Z,98123.03
2018-07-25T05:44:51.820Z,98118.34
2018-07-25T05:47:25.435Z,98108.49
2018-07-25T05:49:58.410Z,98112.59
2018-07-25T05:52:30.636Z,98114.47
2018-07-25T05:55:03.057Z,98119.98
2018-07-25T05:57:35.805Z,98124.69
2018-07-25T06:00:08.408Z,98130.53
2018-07-25T06:02:40.380Z,98128.52
2018-07-25T06:05:12.826Z,98127.34
2018-07-25T06:07:45.155Z,98120.50
2018-07-25T06:10:17.788Z,98114.15
2018-07-25T06:12:50.300Z,98110.33
2018-07-25T06:15:22.909Z,98105.64
2018-07-25T06:17:55.309Z,98102.38
2018-07-25T06:20:28.433Z,98103.13
2018-07-25T06:23:00.130Z,98115.91
2018-07-25T06:25:32.856Z,98122.98
2018-07-25T06:28:05.103Z,98136.61
2018-07-25T06:30:37.167Z,98143.91
2018-07-25T06:33:10.342Z,98159.69
2018-07-25T06:35:42.560Z,98165.20
2018-07-25T06:38:15.013Z,98168.42
2018-07-25T06:40:47.089Z,98166.81
2018-07-25T06:43:19.197Z,98162.37
2018-07-25T06:45:51.231Z,98163.41
2018-07-25T06:48:23.175Z,98157.68
2018-07-25T06:50:55.202Z,98150.58
2018-07-25T06:53:27.071Z,98145.80
2018-07-25T06:55:58.909Z,98142.13
2018-07-25T06:58:32.217Z,98135.72
2018-07-25T07:01:04.815Z,98128.59
2018-07-25T07:06:07.554Z,98115.78
2018-07-25T07:08:39.349Z,98116.42
2018-07-25T07:11:11.253Z,98121.76
2018-07-25T07:13:43.117Z,98112.75
2018-07-25T07:16:15.211Z,98110.77
2018-07-25T07:18:47.046Z,98110.00
2018-07-25T07:21:19.409Z,98108.67
2018-07-25T07:23:50.969Z,98106.70
2018-07-25T07:26:23.294Z,98097.80
2018-07-25T07:28:55.310Z,98081.27
2018-07-25T07:31:27.221Z,98073.64
2018-07-25T07:33:59.511Z,98075.11
2018-07-25T07:36:31.585Z,98063.80
2018-07-25T07:39:03.924Z,98056.85
2018-07-25T07:41:35.881Z,98052.14
2018-07-25T07:44:07.704Z,98049.08
2018-07-25T07:46:39.838Z,98035.40
2018-07-25T07:49:11.635Z,98025.77
2018-07-25T07:51:43.970Z,98019.80
2018-07-25T07:54:16.031Z,98021.52
2018-07-25T07:56:48.175Z,98017.27
2018-07-25T07:59:19.996Z,98012.45
2018-07-25T08:01:52.061Z,98008.38
2018-07-25T08:04:24.265Z,98002.91
2018-07-25T08:06:56.916Z,97996.42
2018-07-25T08:09:29.388Z,97988.61
2018-07-25T08:12:01.383Z,97979.20
2018-07-25T08:14:33.356Z,97960.78
2018-07-25T08:17:06.142Z,97965.59
2018-07-25T08:19:37.891Z,97953.92
2018-07-25T08:22:11.576Z,97951.25
2018-07-25T08:24:43.518Z,97941.52
2018-07-25T08:27:15.463Z,97944.50
2018-07-25T08:29:47.531Z,97940.36
2018-07-25T08:32:19.267Z,97939.45
2018-07-25T08:34:51.413Z,97925.38
2018-07-25T08:37:23.949Z,97933.05
2018-07-25T08:39:56.367Z,97934.13
2018-07-25T08:42:28.636Z,97927.77
2018-07-25T08:45:00.780Z,97929.05
2018-07-25T08:47:33.228Z,97935.53
2018-07-25T08:50:05.664Z,97933.31
2018-07-25T08:52:37.542Z,97933.97
2018-07-25T08:55:09.677Z,97935.53
2018-07-25T08:57:42.519Z,97942.32
2018-07-25T09:00:15.074Z,97940.90
2018-07-25T09:02:47.560Z,97939.88
2018-07-25T09:05:19.996Z,97935.37
2018-07-25T09:07:52.509Z,97937.86
2018-07-25T09:10:25.018Z,97936.11
2018-07-25T09:12:57.845Z,97937.38
2018-07-25T09:15:30.292Z,97935.03
2018-07-25T09:18:03.161Z,97936.97
2018-07-25T09:20:35.987Z,97934.66
2018-07-25T09:23:09.332Z,97926.78
2018-07-25T09:25:43.005Z,97920.94
2018-07-25T09:28:17.059Z,97929.25
2018-07-25T09:30:50.501Z,97928.94
2018-07-25T09:33:25.201Z,97930.18
2018-07-25T09:35:59.872Z,97925.06
2018-07-25T09:38:35.934Z,97930.18
2018-07-25T09:41:12.183Z,97930.81
2018-07-25T09:43:47.186Z,97927.13
2018-07-25T09:46:22.134Z,97925.48
2018-07-25T09:48:56.202Z,97933.20
2018-07-25T09:51:28.760Z,97920.36
2018-07-25T09:54:01.321Z,97926.72
2018-07-25T09:56:34.147Z,97916.48
2018-07-25T09:59:08.680Z,97911.88
2018-07-25T10:01:42.203Z,97908.89
2018-07-25T10:04:14.732Z,97919.38
2018-07-25T10:06:47.008Z,97913.72
2018-07-25T10:09:20.115Z,97912.20
2018-07-25T10:11:53.364Z,97911.18
2018-07-25T10:14:26.012Z,97902.54
2018-07-25T10:16:58.530Z,97892.69
2018-07-25T10:19:31.172Z,97888.18
2018-07-25T10:22:03.894Z,97882.84
2018-07-25T10:24:36.340Z,97890.02
2018-07-25T10:27:09.302Z,97882.84
2018-07-25T10:29:41.887Z,97882.84
2018-07-25T10:32:14.208Z,97891.48
2018-07-25T10:34:46.415Z,97878.14
2018-07-25T10:37:20.864Z,97878.75
2018-07-25T10:39:53.468Z,97878.14
2018-07-25T10:42:26.175Z,97878.65
2018-07-25T10:44:58.372Z,97882.45
2018-07-25T10:47:31.625Z,97886.87
2018-07-25T10:50:05.313Z,97886.87
2018-07-25T10:52:38.189Z,97889.03
2018-07-25T10:55:10.552Z,97897.13
2018-07-25T10:57:42.724Z,97898.05
2018-07-25T11:00:15.809Z,97898.98
2018-07-25T11:02:49.472Z,97904.22
2018-07-25T11:05:21.889Z,97900.02
2018-07-25T11:07:54.337Z,97899.19
2018-07-25T11:10:26.888Z,97899.70
2018-07-25T11:13:00.202Z,97893.03
2018-07-25T11:15:32.537Z,97888.01
2018-07-25T11:18:05.291Z,97893.66
2018-07-25T11:20:37.358Z,97895.63
2018-07-25T11:23:09.410Z,97888.64
2018-07-25T11:25:41.968Z,97885.97
2018-07-25T11:28:14.891Z,97886.99
2018-07-25T11:30:47.036Z,97887.81
2018-07-25T11:33:20.462Z,97883.69
2018-07-25T11:35:52.609Z,97883.09
2018-07-25T11:38:24.466Z,97878.67
2018-07-25T11:40:57.120Z,97880.00
2018-07-25T11:43:28.731Z,97883.09
2018-07-25T11:46:01.549Z,97883.88
2018-07-25T11:48:35.107Z,97887.38
2018-07-25T11:51:09.115Z,97887.38
2018-07-25T11:53:41.317Z,97896.44
2018-07-25T11:56:13.732Z,97902.79
2018-07-25T11:58:45.968Z,97907.70
2018-07-25T12:01:18.832Z,97912.45
2018-07-25T12:03:51.059Z,97913.23
2018-07-25T12:06:24.425Z,97907.39
2018-07-25T12:08:56.701Z,97907.90
2018-07-25T12:11:28.816Z,97913.05
2018-07-25T12:14:00.846Z,97911.71
2018-07-25T12:16:33.171Z,97911.71
2018-07-25T12:19:05.485Z,97915.39
2018-07-25T12:21:37.664Z,97913.05
2018-07-25T12:24:09.743Z,97918.38
2018-07-25T12:26:42.380Z,97915.39
2018-07-25T12:29:15.271Z,97912.13
2018-07-25T12:31:47.604Z,97905.77
2018-07-25T12:34:20.095Z,97912.83
2018-07-25T12:36:52.929Z,97909.14
2018-07-25T12:39:25.979Z,97914.16
2018-07-25T12:41:58.738Z,97911.91
2018-07-25T12:44:30.507Z,97909.77
2018-07-25T12:47:02.678Z,97914.67
2018-07-25T12:49:35.438Z,97923.81
2018-07-25T12:52:07.630Z,97925.78
2018-07-25T12:54:40.055Z,97923.72
2018-07-25T12:57:12.943Z,97924.73
2018-07-25T12:59:45.088Z,97928.23
2018-07-25T13:02:17.937Z,97933.06
2018-07-25T13:04:50.955Z,97937.16
2018-07-25T13:07:25.066Z,97943.13
2018-07-25T13:09:57.988Z,97944.84
2018-07-25T13:12:30.962Z,97948.16
2018-07-25T13:15:03.594Z,97956.76
2018-07-25T13:17:36.577Z,97963.55
2018-07-25T13:20:08.927Z,97964.77
2018-07-25T13:22:42.648Z,97963.94
2018-07-25T13:25:15.693Z,97970.92
2018-07-25T13:27:48.436Z,97971.95
2018-07-25T13:30:20.964Z,97971.16
2018-07-25T13:32:53.904Z,97973.28
2018-07-25T13:35:27.391Z,97977.82
2018-07-25T13:38:00.117Z,97984.78
2018-07-25T13:40:32.697Z,97990.44
2018-07-25T13:43:04.894Z,97993.42
2018-07-25T13:45:37.449Z,97996.59
2018-07-25T13:48:10.925Z,97996.79
2018-07-25T13:50:43.521Z,97996.28
2018-07-25T13:53:16.335Z,98001.11
2018-07-25T13:55:48.372Z,98010.45
2018-07-25T13:58:21.716Z,98006.63
2018-07-25T14:00:54.200Z,98009.84
2018-07-25T14:03:26.942Z,98009.30
2018-07-25T14:06:02.959Z,98017.85
2018-07-25T14:08:35.468Z,98019.47
2018-07-25T14:11:08.094Z,98015.47
2018-07-25T14:13:41.222Z,98011.47
2018-07-25T14:16:13.693Z,98015.47
2018-07-25T14:18:46.108Z,98014.45
2018-07-25T14:21:18.806Z,98013.12
2018-07-25T14:23:51.232Z,98021.44
2018-07-25T14:26:23.669Z,98023.28
2018-07-25T14:28:56.741Z,98029.45
2018-07-25T14:31:29.723Z,98038.78
2018-07-25T14:34:03.018Z,98041.45
2018-07-25T14:36:35.642Z,98043.80
2018-07-25T14:39:13.034Z,98042.16
2018-07-25T14:41:45.167Z,98043.20
2018-07-25T14:44:17.568Z,98044.91
2018-07-25T14:46:50.194Z,98043.95
2018-07-25T14:49:22.605Z,98039.26
2018-07-25T14:51:55.157Z,98041.61
2018-07-25T14:54:28.105Z,98039.07
2018-07-25T14:57:02.424Z,98045.23
2018-07-25T14:59:35.205Z,98045.88
2018-07-25T15:02:07.402Z,98053.23
2018-07-25T15:04:41.190Z,98058.58
2018-07-25T15:07:13.752Z,98063.91
2018-07-25T15:09:46.502Z,98072.55
2018-07-25T15:13:25.131Z,98076.23
2018-07-25T15:15:57.940Z,98083.42
2018-07-25T15:18:30.976Z,98082.08
2018-07-25T15:21:03.750Z,98081.58
2018-07-25T15:23:45.271Z,98084.44
2018-07-25T15:26:17.747Z,98087.93
2018-07-25T15:28:50.450Z,98082.08
2018-07-25T15:31:23.084Z,98083.42
2018-07-25T15:33:56.810Z,98086.09
2018-07-25T15:36:48.881Z,98088.95
2018-07-25T15:39:27.757Z,98091.30
2018-07-25T15:42:02.219Z,98093.45
2018-07-25T15:44:34.800Z,98090.34
2018-07-25T15:47:07.952Z,98092.62
2018-07-25T15:49:41.151Z,98093.13
2018-07-25T15:52:13.785Z,98098.28
2018-07-25T15:54:46.590Z,98100.58
2018-07-25T15:57:19.321Z,98103.53
2018-07-25T15:59:52.216Z,98106.98
2018-07-25T16:02:25.353Z,98106.61
2018-07-25T16:04:58.041Z,98116.45
2018-07-25T16:07:31.067Z,98116.64
2018-07-25T16:10:04.407Z,98120.14
2018-07-25T16:12:37.146Z,98116.97
2018-07-25T16:15:10.609Z,98124.97
2018-07-25T16:17:43.799Z,98121.92
2018-07-25T16:20:16.200Z,98124.88
2018-07-25T16:22:48.587Z,98117.60
2018-07-25T16:25:21.495Z,98117.92
2018-07-25T16:27:53.716Z,98111.53
2018-07-25T16:30:26.654Z,98111.30
2018-07-25T16:32:59.669Z,98100.12
2018-07-25T16:35:32.623Z,98102.28
2018-07-25T16:38:05.187Z,98101.65
2018-07-25T16:40:38.275Z,98104.13
2018-07-25T16:43:11.461Z,98108.00
2018-07-25T16:45:44.795Z,98105.78
2018-07-25T16:48:17.643Z,98103.81
2018-07-25T16:50:51.337Z,98102.80
2018-07-25T16:53:24.598Z,98098.88
2018-07-25T16:55:59.164Z,98104.72
2018-07-25T16:58:31.645Z,98105.23
2018-07-25T17:01:05.662Z,98101.45
2018-07-25T17:03:38.824Z,98105.33
2018-07-25T17:06:11.722Z,98103.67
2018-07-25T17:08:44.795Z,98105.97
2018-07-25T17:11:18.783Z,98101.27
2018-07-25T17:13:51.493Z,98103.75
2018-07-25T17:16:24.396Z,98107.68
2018-07-25T17:18:57.685Z,98107.07
2018-07-25T17:21:30.664Z,98104.50
2018-07-25T17:24:03.670Z,98098.66
2018-07-25T17:26:35.905Z,98095.89
2018-07-25T17:29:09.850Z,98093.22
2018-07-25T17:31:42.472Z,98097.00
2018-07-25T17:34:15.615Z,98096.57
2018-07-25T17:36:48.255Z,98096.81
2018-07-25T17:39:20.666Z,98091.48
2018-07-25T17:41:53.290Z,98091.98
2018-07-25T17:44:25.701Z,98087.42
2018-07-25T17:46:59.338Z,98085.26
2018-07-25T17:49:32.621Z,98084.62
2018-07-25T17:52:04.915Z,98086.91
2018-07-25T17:54:38.133Z,98084.30
2018-07-25T17:57:10.815Z,98080.11
2018-07-25T17:59:44.647Z,98072.75
2018-07-25T18:02:17.480Z,98068.84
2018-07-25T18:04:51.176Z,98064.55
2018-07-25T18:07:24.237Z,98061.66
2018-07-25T18:09:56.860Z,98052.83
2018-07-25T18:12:29.434Z,98052.43
2018-07-25T18:15:02.586Z,98047.03
2018-07-25T18:17:35.112Z,98053.30
2018-07-25T18:20:08.449Z,98052.47
2018-07-25T18:22:40.777Z,98052.98
2018-07-25T18:25:13.418Z,98047.95
2018-07-25T18:27:47.116Z,98044.78
2018-07-25T18:30:19.812Z,98043.03
2018-07-25T18:32:52.524Z,98035.17
2018-07-25T18:35:25.090Z,98031.34
2018-07-25T18:37:58.930Z,98031.44
2018-07-25T18:40:31.523Z,98023.12
2018-07-25T18:43:03.957Z,98019.56
2018-07-25T18:45:36.339Z,98021.59
2018-07-25T18:48:09.174Z,98024.96
2018-07-25T18:50:42.864Z,98013.59
2018-07-25T18:53:15.532Z,98010.60
2018-07-25T18:55:48.205Z,98011.94
2018-07-25T18:58:20.793Z,97995.70
2018-07-25T19:00:53.515Z,97998.18
2018-07-25T19:03:28.676Z,98001.17
2018-07-25T19:06:01.323Z,97998.05
2018-07-25T19:08:33.860Z,97994.05
2018-07-25T19:11:06.591Z,97993.03
2018-07-25T19:13:39.213Z,97989.86
2018-07-25T19:16:11.706Z,97988.48
2018-07-25T19:18:44.624Z,97973.41
2018-07-25T19:21:18.193Z,97968.20
2018-07-25T19:23:52.065Z,97961.66
2018-07-25T19:26:24.705Z,97955.55
2018-07-25T19:28:57.153Z,97955.05
2018-07-25T19:31:29.527Z,97944.69
2018-07-25T19:34:01.780Z,97946.13
2018-07-25T19:36:33.999Z,97941.01
2018-07-25T19:39:10.621Z,97938.53
2018-07-25T19:41:43.601Z,97939.67
2018-07-25T19:44:56.395Z,97933.32
2018-07-25T19:47:29.297Z,97931.67
2018-07-25T19:50:02.511Z,97928.37
2018-07-25T19:52:35.640Z,97928.37
2018-07-25T19:55:08.179Z,97922.71
2018-07-25T19:57:40.922Z,97921.38
2018-07-25T20:00:16.549Z,97919.34
2018-07-25T20:05:12.971Z,97921.34
2018-07-25T20:07:50.029Z,97923.00
2018-07-25T20:10:22.775Z,97924.46
2018-07-25T20:12:55.789Z,97930.11
2018-07-25T20:15:32.428Z,97927.13
2018-07-25T20:18:04.895Z,97922.43
2018-07-25T20:20:36.840Z,97919.13
2018-07-25T20:23:10.781Z,97921.09
2018-07-25T20:25:44.117Z,97916.94
2018-07-25T20:30:47.996Z,97915.41
2018-07-25T20:33:20.604Z,97904.84
2018-07-25T20:35:52.938Z,97900.64
2018-07-25T20:38:25.264Z,97891.50
2018-07-25T20:40:57.863Z,97889.66
2018-07-25T20:43:30.418Z,97891.81
2018-07-25T20:46:02.869Z,97888.64
2018-07-25T20:48:35.070Z,97870.47
2018-07-25T20:51:07.305Z,97873.97
2018-07-25T20:53:39.426Z,97871.71
2018-07-25T20:56:11.612Z,97862.28
2018-07-25T20:58:43.699Z,97854.28
2018-07-25T21:01:15.576Z,97851.80
2018-07-25T21:03:47.578Z,97851.99
2018-07-25T21:06:20.773Z,97844.50
2018-07-25T21:08:52.774Z,97845.83
2018-07-25T21:11:25.394Z,97835.39
2018-07-25T21:13:57.832Z,97826.05
2018-07-25T21:16:30.137Z,97815.16
2018-07-25T21:19:02.433Z,97824.20
2018-07-25T21:21:34.744Z,97811.89
2018-07-25T21:24:07.157Z,97810.75
2018-07-25T21:26:40.301Z,97806.87
2018-07-25T21:29:12.443Z,97795.38
2018-07-25T21:31:44.363Z,97797.29
2018-07-25T21:34:16.288Z,97796.59
2018-07-25T21:36:48.572Z,97795.25
2018-07-25T21:39:20.553Z,97802.11
2018-07-25T21:41:52.276Z,97796.27
2018-07-25T21:44:24.074Z,97792.78
2018-07-25T21:46:56.218Z,97802.28
2018-07-25T21:49:27.935Z,97809.88
2018-07-25T21:51:59.812Z,97825.68
2018-07-25T21:54:31.679Z,97845.49
2018-07-25T21:57:03.492Z,97842.19
2018-07-25T21:59:35.459Z,97849.69
2018-07-25T22:02:07.444Z,97849.88
2018-07-25T22:04:39.486Z,97842.77
2018-07-25T22:07:11.952Z,97838.89
2018-07-25T22:09:44.012Z,97834.06
2018-07-25T22:12:15.867Z,97829.36
2018-07-25T22:14:47.460Z,97870.17
2018-07-25T22:17:19.454Z,97915.00
2018-07-25T22:19:51.421Z,97949.54
2018-07-25T22:22:23.528Z,97916.07
2018-07-25T22:24:55.529Z,97882.80
2018-07-25T22:27:27.246Z,97886.70
2018-07-25T22:29:59.151Z,97903.47
2018-07-25T22:32:31.473Z,97885.31
2018-07-25T22:35:03.492Z,97854.96
2018-07-25T22:37:35.393Z,97873.63
2018-07-25T22:40:07.418Z,97900.39
2018-07-25T22:42:39.066Z,97918.38
2018-07-25T22:45:10.869Z,97939.80
2018-07-25T22:47:42.744Z,97941.23
2018-07-25T22:50:14.661Z,97932.82
2018-07-25T22:52:46.740Z,97918.81
2018-07-25T22:55:18.808Z,97919.59
2018-07-25T22:57:50.752Z,97906.72
2018-07-25T23:00:22.840Z,97899.73
2018-07-25T23:02:56.106Z,97900.94
2018-07-25T23:05:28.040Z,97912.80
2018-07-25T23:08:01.134Z,97914.73
2018-07-25T23:10:32.855Z,97924.88
2018-07-25T23:13:04.711Z,97931.36
2018-07-25T23:15:36.791Z,97940.37
2018-07-25T23:18:08.542Z,97937.52
2018-07-25T23:20:40.403Z,97952.17
2018-07-25T23:23:12.409Z,97948.50
2018-07-25T23:25:44.075Z,97960.54
2018-07-25T23:28:16.433Z,97968.86
2018-07-25T23:30:48.487Z,97968.72
2018-07-25T23:33:20.223Z,97962.56
2018-07-25T23:35:51.838Z,97972.11
2018-07-25T23:38:23.613Z,97963.29
2018-07-25T23:40:55.189Z,97970.56
2018-07-25T23:43:27.080Z,97973.87
2018-07-25T23:45:59.292Z,97975.60
2018-07-25T23:48:30.883Z,97959.61
2018-07-25T23:51:03.724Z,97971.20
2018-07-25T23:53:35.579Z,97974.56
2018-07-25T23:56:07.381Z,97981.59
2018-07-25T23:58:39.385Z,97993.95
